createdAt,value
2018-09-17T00:00:38.441Z,78.72
2018-09-17T00:01:38.374Z,80.29
2018-09-17T00:03:31.608Z,82.54
2018-09-17T00:04:31.381Z,81.76
2018-09-17T00:06:24.368Z,81.76
2018-09-17T00:07:24.385Z,80.19
2018-09-17T00:09:17.654Z,78.72
2018-09-17T00:10:17.378Z,80.78
2018-09-17T00:12:10.366Z,84.30
2018-09-17T00:13:10.386Z,80.88
2018-09-17T00:15:03.468Z,79.21
2018-09-17T00:16:03.380Z,78.04
2018-09-17T00:17:56.358Z,81.11
2018-09-17T00:18:56.367Z,78.77
2018-09-17T00:20:49.484Z,78.96
2018-09-17T00:21:49.382Z,80.13
2018-09-17T00:23:42.356Z,78.77
2018-09-17T00:24:42.366Z,78.90
2018-09-17T00:26:35.463Z,78.12
2018-09-17T00:27:35.377Z,79.19
2018-09-17T00:29:28.346Z,81.25
2018-09-17T00:30:28.377Z,82.23
2018-09-17T00:32:21.609Z,80.86
2018-09-17T00:33:21.365Z,80.17
2018-09-17T00:35:14.861Z,82.82
2018-09-17T00:36:14.362Z,83.40
2018-09-17T00:38:07.581Z,84.77
2018-09-17T00:39:07.462Z,84.87
2018-09-17T00:41:00.758Z,85.81
2018-09-17T00:42:00.672Z,86.63
2018-09-17T00:43:53.770Z,88.40
2018-09-17T00:44:53.665Z,86.05
2018-09-17T00:46:46.670Z,87.51
2018-09-17T00:47:46.677Z,86.44
2018-09-17T00:49:39.762Z,89.04
2018-09-17T00:50:39.734Z,90.01
2018-09-17T00:52:32.795Z,89.92
2018-09-17T00:53:32.718Z,91.09
2018-09-17T00:55:25.829Z,90.41
2018-09-17T00:56:25.707Z,91.58
2018-09-17T00:58:18.689Z,86.06
2018-09-17T00:59:18.708Z,89.62
2018-09-17T01:01:11.754Z,86.49
2018-09-17T01:02:11.704Z,85.71
2018-09-17T01:04:04.677Z,84.74
2018-09-17T01:05:04.718Z,84.74
2018-09-17T01:06:57.821Z,84.14
2018-09-17T01:07:57.715Z,83.26
2018-09-17T01:09:50.667Z,81.70
2018-09-17T01:10:50.689Z,82.68
2018-09-17T01:12:43.935Z,83.85
2018-09-17T01:13:43.724Z,79.51
2018-09-17T01:15:36.680Z,84.01
2018-09-17T01:16:36.715Z,81.66
2018-09-17T01:18:29.826Z,78.92
2018-09-17T01:19:29.721Z,79.80
2018-09-17T01:21:22.704Z,80.29
2018-09-17T01:22:22.705Z,77.75
2018-09-17T01:24:15.973Z,83.81
2018-09-17T01:25:15.716Z,79.02
2018-09-17T01:27:08.694Z,78.82
2018-09-17T01:28:08.714Z,80.19
2018-09-17T01:30:01.805Z,79.11
2018-09-17T01:31:01.729Z,78.57
2018-09-17T01:32:55.195Z,81.41
2018-09-17T01:33:54.711Z,76.57
2018-09-17T01:35:47.763Z,80.78
2018-09-17T01:36:47.711Z,79.32
2018-09-17T01:38:40.709Z,79.80
2018-09-17T01:39:40.726Z,81.85
2018-09-17T01:41:33.998Z,83.91
2018-09-17T01:42:33.712Z,84.74
2018-09-17T01:44:27.193Z,78.92
2018-09-17T01:45:26.712Z,80.33
2018-09-17T01:47:19.974Z,81.01
2018-09-17T01:48:19.790Z,81.51
2018-09-17T01:50:12.861Z,79.35
2018-09-17T01:51:12.890Z,81.30
2018-09-17T01:53:06.477Z,80.98
2018-09-17T01:54:05.878Z,80.91
2018-09-17T01:55:58.864Z,80.13
2018-09-17T01:56:58.869Z,81.80
2018-09-17T01:58:51.968Z,80.78
2018-09-17T01:59:51.878Z,79.94
2018-09-17T02:01:44.849Z,84.05
2018-09-17T02:02:44.876Z,82.44
2018-09-17T02:04:38.132Z,83.81
2018-09-17T02:05:37.869Z,81.85
2018-09-17T02:07:30.865Z,83.42
2018-09-17T02:08:30.920Z,82.64
2018-09-17T02:10:24.013Z,85.47
2018-09-17T02:11:23.883Z,84.20
2018-09-17T02:13:16.862Z,83.42
2018-09-17T02:14:16.891Z,84.79
2018-09-17T02:16:10.011Z,86.06
2018-09-17T02:17:09.875Z,85.61
2018-09-17T02:19:02.858Z,86.16
2018-09-17T02:20:02.874Z,86.84
2018-09-17T02:21:56.028Z,86.45
2018-09-17T02:22:55.880Z,88.21
2018-09-17T02:24:48.866Z,91.78
2018-09-17T02:25:48.874Z,88.80
2018-09-17T02:27:42.172Z,86.16
2018-09-17T02:28:41.881Z,85.08
2018-09-17T02:30:34.874Z,85.38
2018-09-17T02:31:34.876Z,85.63
2018-09-17T02:33:27.980Z,84.20
2018-09-17T02:34:27.879Z,85.86
2018-09-17T02:36:20.861Z,86.84
2018-09-17T02:37:20.875Z,86.16
2018-09-17T02:39:14.617Z,84.40
2018-09-17T02:40:13.882Z,85.47
2018-09-17T02:42:06.875Z,86.25
2018-09-17T02:43:06.896Z,83.36
2018-09-17T02:45:00.123Z,86.16
2018-09-17T02:45:59.893Z,86.74
2018-09-17T02:47:53.233Z,88.41
2018-09-17T02:48:52.899Z,89.68
2018-09-17T02:50:45.993Z,86.99
2018-09-17T02:51:45.970Z,86.02
2018-09-17T02:53:38.870Z,85.63
2018-09-17T02:54:38.897Z,85.82
2018-09-17T02:56:31.904Z,85.82
2018-09-17T02:57:31.891Z,83.87
2018-09-17T02:59:24.863Z,88.27
2018-09-17T03:00:24.893Z,90.03
2018-09-17T03:02:17.981Z,86.84
2018-09-17T03:03:17.880Z,89.29
2018-09-17T03:05:10.875Z,87.82
2018-09-17T03:06:10.878Z,89.05
2018-09-17T03:08:04.177Z,89.93
2018-09-17T03:09:03.898Z,91.49
2018-09-17T03:10:56.867Z,90.75
2018-09-17T03:11:56.884Z,88.70
2018-09-17T03:13:50.144Z,88.70
2018-09-17T03:14:49.885Z,87.73
2018-09-17T03:16:42.849Z,86.45
2018-09-17T03:17:42.877Z,86.11
2018-09-17T03:19:35.901Z,86.60
2018-09-17T03:20:35.888Z,85.24
2018-09-17T03:22:28.860Z,87.78
2018-09-17T03:23:28.880Z,87.68
2018-09-17T03:25:22.020Z,89.15
2018-09-17T03:26:21.889Z,90.91
2018-09-17T03:28:14.855Z,88.66
2018-09-17T03:29:14.871Z,90.52
2018-09-17T03:31:07.971Z,88.07
2018-09-17T03:32:07.871Z,90.81
2018-09-17T03:34:00.836Z,92.47
2018-09-17T03:35:00.880Z,92.18
2018-09-17T03:36:54.652Z,92.27
2018-09-17T03:37:53.854Z,87.29
2018-09-17T03:39:46.846Z,88.66
2018-09-17T03:40:46.876Z,88.27
2018-09-17T03:42:39.978Z,88.66
2018-09-17T03:43:39.863Z,87.98
2018-09-17T03:45:32.844Z,91.10
2018-09-17T03:46:32.916Z,91.16
2018-09-17T03:48:25.913Z,93.70
2018-09-17T03:49:25.868Z,90.86
2018-09-17T03:51:18.850Z,93.70
2018-09-17T03:52:18.869Z,92.62
2018-09-17T03:54:12.145Z,91.00
2018-09-17T03:55:11.856Z,89.34
2018-09-17T03:57:04.838Z,89.50
2018-09-17T03:58:04.854Z,92.13
2018-09-17T03:59:58.139Z,90.77
2018-09-17T04:00:57.853Z,94.38
2018-09-17T04:02:50.830Z,95.16
2018-09-17T04:03:50.866Z,91.84
2018-09-17T04:05:44.386Z,92.23
2018-09-17T04:06:43.844Z,93.50
2018-09-17T04:08:36.844Z,91.35
2018-09-17T04:09:36.848Z,90.57
2018-09-17T04:11:29.874Z,90.77
2018-09-17T04:12:29.857Z,90.71
2018-09-17T04:14:22.835Z,92.91
2018-09-17T04:15:22.837Z,93.11
2018-09-17T04:17:15.956Z,92.52
2018-09-17T04:18:15.833Z,93.79
2018-09-17T04:20:08.829Z,92.91
2018-09-17T04:21:08.830Z,94.38
2018-09-17T04:23:01.934Z,94.87
2018-09-17T04:24:01.819Z,94.67
2018-09-17T04:25:54.829Z,97.80
2018-09-17T04:26:54.825Z,98.38
2018-09-17T04:28:47.851Z,97.99
2018-09-17T04:29:47.816Z,94.96
2018-09-17T04:31:40.873Z,98.68
2018-09-17T04:32:40.822Z,99.99
2018-09-17T04:34:33.922Z,93.85
2018-09-17T04:35:33.825Z,92.29
2018-09-17T04:37:26.800Z,95.80
2018-09-17T04:38:26.817Z,95.80
2018-09-17T04:40:19.931Z,93.60
2018-09-17T04:41:19.817Z,98.58
2018-09-17T04:43:12.800Z,92.72
2018-09-17T04:44:12.817Z,92.53
2018-09-17T04:46:05.852Z,95.07
2018-09-17T04:47:05.817Z,93.41
2018-09-17T04:48:58.806Z,92.63
2018-09-17T04:49:58.827Z,92.63
2018-09-17T04:51:51.849Z,91.26
2018-09-17T04:52:51.814Z,93.12
2018-09-17T04:54:44.812Z,92.38
2018-09-17T04:55:44.833Z,93.31
2018-09-17T04:57:38.066Z,91.94
2018-09-17T04:58:37.831Z,92.24
2018-09-17T05:00:30.805Z,94.58
2018-09-17T05:01:30.822Z,94.92
2018-09-17T05:03:23.912Z,96.44
2018-09-17T05:04:23.796Z,98.88
2018-09-17T05:06:16.790Z,96.04
2018-09-17T05:07:16.875Z,97.31
2018-09-17T05:09:10.045Z,99.76
2018-09-17T05:10:09.804Z,99.99
2018-09-17T05:12:02.785Z,99.07
2018-09-17T05:13:02.838Z,98.68
2018-09-17T05:14:55.907Z,99.90
2018-09-17T05:15:55.792Z,99.02
2018-09-17T05:17:48.799Z,99.99
2018-09-17T05:18:48.926Z,99.99
2018-09-17T05:20:43.002Z,99.99
2018-09-17T05:21:42.877Z,99.99
2018-09-17T05:23:35.842Z,99.99
2018-09-17T05:24:35.877Z,99.99
2018-09-17T05:26:28.982Z,99.99
2018-09-17T05:27:28.871Z,99.99
2018-09-17T05:29:21.840Z,99.99
2018-09-17T05:30:21.855Z,99.99
2018-09-17T05:32:15.007Z,99.99
2018-09-17T05:33:14.866Z,99.99
2018-09-17T05:35:07.866Z,99.99
2018-09-17T05:36:07.852Z,99.99
2018-09-17T05:38:00.967Z,99.99
2018-09-17T05:39:00.853Z,99.99
2018-09-17T05:40:53.846Z,99.99
2018-09-17T05:41:53.866Z,99.99
2018-09-17T05:43:46.946Z,99.99
2018-09-17T05:44:46.866Z,99.99
2018-09-17T05:46:39.833Z,99.99
2018-09-17T05:47:39.940Z,99.99
2018-09-17T05:49:32.976Z,99.99
2018-09-17T05:50:32.851Z,99.99
2018-09-17T05:52:25.845Z,99.99
2018-09-17T05:53:25.844Z,99.99
2018-09-17T05:55:19.074Z,99.99
2018-09-17T05:56:18.959Z,99.99
2018-09-17T05:58:11.927Z,99.99
2018-09-17T05:59:11.970Z,99.99
2018-09-17T06:01:05.087Z,99.99
2018-09-17T06:02:04.952Z,99.46
2018-09-17T06:03:57.938Z,98.73
2018-09-17T06:04:57.970Z,96.24
2018-09-17T06:06:51.092Z,96.92
2018-09-17T06:07:50.995Z,98.29
2018-09-17T06:09:43.980Z,98.58
2018-09-17T06:10:43.963Z,95.85
2018-09-17T06:12:37.260Z,95.65
2018-09-17T06:13:36.970Z,96.73
2018-09-17T06:15:29.956Z,97.61
2018-09-17T06:16:29.978Z,96.53
2018-09-17T06:17:30.064Z,98.19
2018-09-17T06:18:30.021Z,95.85
2018-09-17T06:19:30.026Z,97.71
2018-09-17T06:20:30.063Z,97.12
2018-09-17T06:21:30.069Z,98.00
2018-09-17T06:22:30.093Z,99.99
2018-09-17T06:23:30.113Z,97.90
2018-09-17T06:24:30.119Z,99.99
2018-09-17T06:25:30.167Z,99.99
2018-09-17T06:26:30.209Z,98.29
2018-09-17T06:27:30.214Z,99.99
2018-09-17T06:28:30.281Z,99.99
2018-09-17T06:29:30.250Z,99.99
2018-09-17T06:30:30.262Z,99.41
2018-09-17T06:31:30.284Z,98.44
2018-09-17T06:32:30.294Z,99.99
2018-09-17T06:33:30.345Z,99.99
2018-09-17T06:34:30.350Z,99.99
2018-09-17T06:35:30.383Z,98.73
2018-09-17T06:36:30.412Z,99.80
2018-09-17T06:37:30.422Z,99.95
2018-09-17T06:38:30.447Z,99.99
2018-09-17T06:39:30.472Z,99.99
2018-09-17T06:40:30.481Z,99.66
2018-09-17T06:41:30.572Z,99.99
2018-09-17T06:42:30.511Z,99.99
2018-09-17T06:43:30.552Z,99.99
2018-09-17T06:44:30.581Z,99.99
2018-09-17T06:45:30.598Z,99.99
2018-09-17T06:46:30.609Z,99.99
2018-09-17T06:47:30.630Z,99.99
2018-09-17T06:48:30.654Z,97.75
2018-09-17T06:49:30.691Z,99.41
2018-09-17T06:50:30.712Z,99.99
2018-09-17T06:51:30.736Z,99.99
2018-09-17T06:52:30.739Z,99.99
2018-09-17T06:53:30.765Z,99.99
2018-09-17T06:54:30.796Z,99.99
2018-09-17T06:55:30.821Z,99.99
2018-09-17T06:56:30.826Z,99.99
2018-09-17T06:57:30.849Z,99.99
2018-09-17T06:58:30.869Z,99.99
2018-09-17T06:59:30.938Z,99.99
2018-09-17T07:00:30.900Z,99.99
2018-09-17T07:01:30.950Z,99.41
2018-09-17T07:02:30.966Z,99.99
2018-09-17T07:03:30.978Z,99.71
2018-09-17T07:04:31.013Z,99.99
2018-09-17T07:05:31.007Z,99.95
2018-09-17T07:06:31.042Z,99.99
2018-09-17T07:07:31.062Z,99.99
2018-09-17T07:08:31.088Z,99.99
2018-09-17T07:09:31.125Z,99.99
2018-09-17T07:10:31.130Z,99.99
2018-09-17T07:11:31.165Z,99.99
2018-09-17T07:12:31.183Z,99.99
2018-09-17T07:13:31.200Z,99.99
2018-09-17T07:14:31.224Z,99.99
2018-09-17T07:15:31.236Z,99.99
2018-09-17T07:16:31.270Z,99.99
2018-09-17T07:17:31.292Z,99.99
2018-09-17T07:18:31.301Z,99.99
2018-09-17T07:19:31.322Z,99.99
2018-09-17T07:20:31.383Z,99.99
2018-09-17T07:21:31.377Z,99.99
2018-09-17T07:22:31.396Z,99.99
2018-09-17T07:23:31.408Z,99.99
2018-09-17T07:24:31.428Z,99.99
2018-09-17T07:25:31.458Z,99.99
2018-09-17T07:26:31.471Z,99.99
2018-09-17T07:27:31.506Z,99.99
2018-09-17T07:28:31.510Z,99.99
2018-09-17T07:29:31.534Z,99.99
2018-09-17T07:30:31.571Z,99.99
2018-09-17T07:31:31.578Z,99.99
2018-09-17T07:32:31.650Z,99.99
2018-09-17T07:33:31.639Z,99.99
2018-09-17T07:34:31.652Z,99.99
2018-09-17T07:35:31.680Z,99.99
2018-09-17T07:36:31.773Z,99.99
2018-09-17T07:37:31.719Z,99.99
2018-09-17T07:38:31.721Z,99.99
2018-09-17T07:39:31.767Z,99.99
2018-09-17T07:40:31.801Z,99.99
2018-09-17T07:41:31.790Z,99.99
2018-09-17T07:42:31.821Z,99.99
2018-09-17T07:43:31.853Z,99.99
2018-09-17T07:44:31.844Z,99.99
2018-09-17T07:45:31.881Z,99.99
2018-09-17T07:46:31.909Z,99.99
2018-09-17T07:47:31.932Z,99.99
2018-09-17T07:48:31.942Z,99.99
2018-09-17T07:49:31.951Z,99.99
2018-09-17T07:50:31.987Z,99.99
2018-09-17T07:51:32.020Z,99.99
2018-09-17T07:52:32.026Z,99.99
2018-09-17T07:53:32.078Z,99.99
2018-09-17T07:54:32.090Z,99.99
2018-09-17T07:55:32.094Z,99.99
2018-09-17T07:56:32.114Z,99.99
2018-09-17T07:57:32.162Z,99.99
2018-09-17T07:58:32.164Z,99.99
2018-09-17T07:59:32.177Z,99.99
2018-09-17T08:00:32.212Z,99.99
2018-09-17T08:01:32.234Z,99.99
2018-09-17T08:02:32.240Z,99.99
2018-09-17T08:03:32.271Z,99.99
2018-09-17T08:04:32.268Z,99.99
2018-09-17T08:05:32.308Z,99.99
2018-09-17T08:06:32.315Z,99.99
2018-09-17T08:07:32.360Z,99.99
2018-09-17T08:08:32.378Z,99.99
2018-09-17T08:09:32.398Z,99.99
2018-09-17T08:10:32.418Z,99.99
2018-09-17T08:11:32.430Z,99.99
2018-09-17T08:12:32.450Z,99.99
2018-09-17T08:13:32.483Z,99.99
2018-09-17T08:14:32.502Z,99.99
2018-09-17T08:15:32.527Z,99.99
2018-09-17T08:16:32.534Z,99.99
2018-09-17T08:17:32.556Z,99.99
2018-09-17T08:18:32.590Z,99.99
2018-09-17T08:19:32.768Z,99.99
2018-09-17T08:20:32.615Z,99.99
2018-09-17T08:21:32.649Z,99.99
2018-09-17T08:22:32.669Z,99.99
2018-09-17T08:23:32.682Z,99.99
2018-09-17T08:24:32.733Z,99.99
2018-09-17T08:25:32.768Z,99.99
2018-09-17T08:26:32.741Z,99.99
2018-09-17T08:27:32.761Z,99.99
2018-09-17T08:28:32.795Z,99.99
2018-09-17T08:29:32.820Z,99.99
2018-09-17T08:30:32.876Z,99.99
2018-09-17T08:31:32.846Z,99.99
2018-09-17T08:32:32.882Z,99.99
2018-09-17T08:33:32.873Z,99.99
2018-09-17T08:34:32.908Z,99.99
2018-09-17T08:35:32.929Z,99.99
2018-09-17T08:36:32.957Z,99.99
2018-09-17T08:37:32.977Z,99.99
2018-09-17T08:38:32.980Z,99.99
2018-09-17T08:39:33.022Z,99.99
2018-09-17T08:40:33.032Z,99.99
2018-09-17T08:41:33.112Z,99.99
2018-09-17T08:42:33.084Z,99.99
2018-09-17T08:43:33.097Z,99.99
2018-09-17T08:44:33.114Z,99.99
2018-09-17T08:45:33.197Z,99.99
2018-09-17T08:46:33.208Z,99.99
2018-09-17T08:47:33.191Z,99.99
2018-09-17T08:48:33.197Z,99.99
2018-09-17T08:49:33.209Z,99.99
2018-09-17T08:50:33.226Z,99.99
2018-09-17T08:51:33.262Z,99.99
2018-09-17T08:52:33.281Z,99.99
2018-09-17T08:53:33.310Z,99.99
2018-09-17T08:54:33.330Z,99.99
2018-09-17T08:55:33.357Z,99.99
2018-09-17T08:56:33.372Z,99.99
2018-09-17T08:57:33.383Z,99.99
2018-09-17T08:58:33.410Z,99.99
2018-09-17T08:59:33.445Z,99.99
2018-09-17T09:00:33.451Z,99.99
2018-09-17T09:01:33.484Z,99.99
2018-09-17T09:02:33.492Z,99.99
2018-09-17T09:03:33.513Z,99.99
2018-09-17T09:04:33.545Z,99.99
2018-09-17T09:05:33.568Z,99.99
2018-09-17T09:06:33.576Z,99.99
2018-09-17T09:07:33.612Z,99.99
2018-09-17T09:08:33.608Z,99.99
2018-09-17T09:09:33.654Z,99.99
2018-09-17T09:10:33.676Z,99.99
2018-09-17T09:11:33.669Z,99.99
2018-09-17T09:12:33.709Z,99.99
2018-09-17T09:13:33.727Z,99.99
2018-09-17T09:14:33.734Z,99.99
2018-09-17T09:15:33.785Z,99.99
2018-09-17T09:16:33.806Z,99.99
2018-09-17T09:17:33.811Z,99.99
2018-09-17T09:18:33.851Z,99.99
2018-09-17T09:19:33.876Z,99.99
2018-09-17T09:20:33.876Z,99.99
2018-09-17T09:21:33.899Z,99.99
2018-09-17T09:22:33.920Z,99.99
2018-09-17T09:23:33.942Z,99.99
2018-09-17T09:24:33.961Z,99.99
2018-09-17T09:25:33.983Z,99.99
2018-09-17T09:26:34.011Z,99.99
2018-09-17T09:27:34.024Z,99.99
2018-09-17T09:28:34.042Z,99.99
2018-09-17T09:29:34.052Z,99.99
2018-09-17T09:30:34.086Z,99.99
2018-09-17T09:31:34.107Z,99.99
2018-09-17T09:32:34.140Z,99.99
2018-09-17T09:33:34.167Z,99.99
2018-09-17T09:34:34.167Z,99.99
2018-09-17T09:35:34.196Z,99.99
2018-09-17T09:36:34.218Z,99.99
2018-09-17T09:37:34.222Z,99.99
2018-09-17T09:38:34.270Z,99.99
2018-09-17T09:39:34.264Z,99.99
2018-09-17T09:40:34.297Z,99.99
2018-09-17T09:41:34.316Z,99.99
2018-09-17T09:42:34.350Z,99.99
2018-09-17T09:43:34.363Z,99.99
2018-09-17T09:44:34.385Z,99.99
2018-09-17T09:45:34.420Z,99.99
2018-09-17T09:46:34.411Z,99.99
2018-09-17T09:47:34.478Z,99.99
2018-09-17T09:48:34.475Z,99.99
2018-09-17T09:49:34.472Z,99.99
2018-09-17T09:50:34.522Z,99.99
2018-09-17T09:51:34.540Z,99.99
2018-09-17T09:52:34.553Z,99.99
2018-09-17T09:53:34.556Z,99.99
2018-09-17T09:54:34.593Z,99.99
2018-09-17T09:55:34.620Z,99.99
2018-09-17T09:56:34.648Z,99.99
2018-09-17T09:57:34.650Z,99.99
2018-09-17T09:58:34.679Z,99.99
2018-09-17T09:59:34.791Z,99.99
2018-09-17T10:00:34.705Z,99.99
2018-09-17T10:01:34.752Z,99.99
2018-09-17T10:02:34.769Z,99.99
2018-09-17T10:03:34.778Z,99.99
2018-09-17T10:04:34.814Z,99.99
2018-09-17T10:05:34.804Z,99.99
2018-09-17T10:06:34.857Z,99.99
2018-09-17T10:07:34.862Z,99.99
2018-09-17T10:08:34.882Z,99.99
2018-09-17T10:09:34.912Z,99.99
2018-09-17T10:10:34.925Z,99.99
2018-09-17T10:11:34.953Z,99.99
2018-09-17T10:12:35.057Z,99.99
2018-09-17T10:13:34.973Z,99.99
2018-09-17T10:14:35.016Z,99.99
2018-09-17T10:15:35.028Z,99.99
2018-09-17T10:16:35.050Z,99.99
2018-09-17T10:17:35.083Z,99.99
2018-09-17T10:18:35.113Z,99.99
2018-09-17T10:19:35.127Z,99.99
2018-09-17T10:20:35.132Z,99.99
2018-09-17T10:21:35.143Z,99.99
2018-09-17T10:22:35.192Z,99.99
2018-09-17T10:23:35.208Z,99.99
2018-09-17T10:24:35.220Z,99.99
2018-09-17T10:25:35.241Z,99.99
2018-09-17T10:26:35.276Z,99.99
2018-09-17T10:27:35.293Z,99.99
2018-09-17T10:28:35.300Z,99.99
2018-09-17T10:29:35.332Z,99.99
2018-09-17T10:30:35.357Z,99.99
2018-09-17T10:31:35.370Z,99.99
2018-09-17T10:32:35.386Z,99.99
2018-09-17T10:33:35.418Z,99.99
2018-09-17T10:34:35.443Z,99.99
2018-09-17T10:35:35.456Z,99.99
2018-09-17T10:36:35.469Z,99.99
2018-09-17T10:37:35.488Z,99.99
2018-09-17T10:38:35.511Z,99.99
2018-09-17T10:39:35.567Z,99.99
2018-09-17T10:40:35.583Z,99.99
2018-09-17T10:41:35.586Z,99.99
2018-09-17T10:42:35.622Z,99.99
2018-09-17T10:43:35.615Z,99.99
2018-09-17T10:44:35.634Z,99.99
2018-09-17T10:45:35.643Z,99.99
2018-09-17T10:46:35.685Z,99.99
2018-09-17T10:47:35.721Z,99.99
2018-09-17T10:48:35.726Z,99.99
2018-09-17T10:49:35.763Z,99.99
2018-09-17T10:50:35.778Z,99.99
2018-09-17T10:51:35.786Z,99.99
2018-09-17T10:52:35.812Z,99.99
2018-09-17T10:53:35.833Z,99.99
2018-09-17T10:54:35.848Z,99.99
2018-09-17T10:55:35.886Z,99.99
2018-09-17T10:56:35.906Z,99.99
2018-09-17T10:57:35.914Z,99.99
2018-09-17T10:58:35.948Z,99.99
2018-09-17T10:59:35.952Z,99.99
2018-09-17T11:00:35.979Z,99.99
2018-09-17T11:01:36.003Z,99.99
2018-09-17T11:02:36.031Z,99.99
2018-09-17T11:03:36.056Z,99.99
2018-09-17T11:04:36.068Z,99.99
2018-09-17T11:05:36.079Z,99.99
2018-09-17T11:06:36.099Z,99.99
2018-09-17T11:07:36.175Z,99.99
2018-09-17T11:08:36.801Z,99.99
2018-09-17T11:09:36.180Z,99.99
2018-09-17T11:10:36.182Z,99.99
2018-09-17T11:11:36.203Z,99.99
2018-09-17T11:12:36.243Z,99.99
2018-09-17T11:13:36.247Z,99.99
2018-09-17T11:14:36.284Z,99.99
2018-09-17T11:15:36.288Z,99.99
2018-09-17T11:16:36.320Z,99.99
2018-09-17T11:17:36.381Z,99.99
2018-09-17T11:18:36.351Z,99.99
2018-09-17T11:19:36.389Z,99.99
2018-09-17T11:20:36.399Z,99.99
2018-09-17T11:21:36.398Z,99.99
2018-09-17T11:22:36.436Z,99.99
2018-09-17T11:23:36.444Z,99.99
2018-09-17T11:24:36.492Z,99.99
2018-09-17T11:25:36.491Z,99.99
2018-09-17T11:26:36.504Z,99.99
2018-09-17T11:27:36.523Z,99.99
2018-09-17T11:28:36.557Z,99.99
2018-09-17T11:29:36.578Z,99.99
2018-09-17T11:30:36.612Z,99.99
2018-09-17T11:31:36.635Z,99.99
2018-09-17T11:32:36.639Z,99.99
2018-09-17T11:33:36.645Z,99.99
2018-09-17T11:34:36.681Z,99.99
2018-09-17T11:35:37.323Z,99.99
2018-09-17T11:36:36.734Z,99.99
2018-09-17T11:37:36.751Z,99.99
2018-09-17T11:38:36.761Z,99.99
2018-09-17T11:39:36.775Z,99.99
2018-09-17T11:40:36.828Z,99.99
2018-09-17T11:41:36.846Z,99.99
2018-09-17T11:42:36.849Z,99.99
2018-09-17T11:43:36.874Z,99.99
2018-09-17T11:44:36.904Z,99.99
2018-09-17T11:45:36.911Z,99.99
2018-09-17T11:46:36.935Z,99.99
2018-09-17T11:47:36.973Z,99.99
2018-09-17T11:48:36.989Z,99.99
2018-09-17T11:49:37.006Z,99.99
2018-09-17T11:50:37.032Z,99.99
2018-09-17T11:51:37.053Z,99.99
2018-09-17T11:52:37.061Z,99.99
2018-09-17T11:53:37.083Z,99.99
2018-09-17T11:54:37.101Z,99.99
2018-09-17T11:55:37.106Z,99.99
2018-09-17T11:56:37.151Z,99.99
2018-09-17T11:57:37.163Z,99.99
2018-09-17T11:58:37.195Z,99.99
2018-09-17T11:59:37.204Z,99.99
2018-09-17T12:00:37.228Z,99.99
2018-09-17T12:01:37.309Z,99.99
2018-09-17T12:02:37.280Z,99.99
2018-09-17T12:03:37.279Z,99.99
2018-09-17T12:04:37.312Z,99.99
2018-09-17T12:05:37.332Z,99.99
2018-09-17T12:06:37.361Z,99.99
2018-09-17T12:07:37.368Z,99.99
2018-09-17T12:08:37.386Z,99.99
2018-09-17T12:09:37.426Z,99.99
2018-09-17T12:10:37.427Z,99.99
2018-09-17T12:11:37.456Z,99.99
2018-09-17T12:12:37.485Z,99.99
2018-09-17T12:13:37.502Z,99.99
2018-09-17T12:14:37.530Z,99.99
2018-09-17T12:16:37.806Z,99.99
2018-09-17T12:17:38.408Z,99.99
2018-09-17T12:18:37.808Z,99.99
2018-09-17T12:19:37.824Z,99.99
2018-09-17T12:20:37.870Z,99.99
2018-09-17T12:21:37.849Z,99.99
2018-09-17T12:22:38.883Z,99.99
2018-09-17T12:23:40.639Z,99.99
2018-09-17T12:24:37.936Z,99.99
2018-09-17T12:25:37.980Z,99.99
2018-09-17T12:26:37.992Z,99.99
2018-09-17T12:27:37.995Z,99.99
2018-09-17T12:28:39.032Z,99.99
2018-09-17T12:29:38.036Z,99.99
2018-09-17T12:30:38.070Z,99.99
2018-09-17T12:31:38.064Z,99.99
2018-09-17T12:32:38.104Z,99.99
2018-09-17T12:33:38.183Z,99.99
2018-09-17T12:34:39.129Z,99.99
2018-09-17T12:35:38.162Z,99.99
2018-09-17T12:36:38.176Z,99.99
2018-09-17T12:37:38.219Z,99.99
2018-09-17T12:38:38.236Z,99.99
2018-09-17T12:39:38.240Z,99.99
2018-09-17T12:40:39.274Z,99.99
2018-09-17T12:41:38.263Z,99.99
2018-09-17T12:42:38.282Z,99.99
2018-09-17T12:43:38.326Z,99.99
2018-09-17T12:44:38.348Z,99.99
2018-09-17T12:45:38.366Z,99.99
2018-09-17T12:46:39.398Z,99.99
2018-09-17T12:47:38.425Z,99.99
2018-09-17T12:48:38.434Z,99.99
2018-09-17T12:49:38.466Z,99.99
2018-09-17T12:50:38.469Z,99.99
2018-09-17T12:51:38.486Z,99.99
2018-09-17T12:52:39.541Z,99.99
2018-09-17T12:53:38.510Z,99.99
2018-09-17T12:54:38.568Z,99.99
2018-09-17T12:55:38.590Z,99.99
2018-09-17T12:56:38.578Z,99.99
2018-09-17T12:57:38.641Z,99.99
2018-09-17T12:58:40.425Z,99.99
2018-09-17T12:59:38.681Z,99.99
2018-09-17T13:00:39.427Z,99.99
2018-09-17T13:01:38.716Z,99.99
2018-09-17T13:02:38.744Z,99.99
2018-09-17T13:03:38.764Z,99.99
2018-09-17T13:04:39.781Z,99.99
2018-09-17T13:05:38.779Z,99.99
2018-09-17T13:06:38.816Z,99.99
2018-09-17T13:07:38.827Z,99.99
2018-09-17T13:08:40.934Z,99.99
2018-09-17T13:09:38.866Z,99.99
2018-09-17T13:10:40.709Z,99.99
2018-09-17T13:11:38.905Z,99.99
2018-09-17T13:12:38.923Z,99.99
2018-09-17T13:13:38.949Z,99.99
2018-09-17T13:14:38.983Z,99.99
2018-09-17T13:15:38.988Z,99.99
2018-09-17T13:16:40.030Z,99.99
2018-09-17T13:17:39.036Z,99.99
2018-09-17T13:18:39.054Z,99.99
2018-09-17T13:19:39.097Z,99.99
2018-09-17T13:20:39.996Z,99.99
2018-09-17T13:21:39.112Z,99.99
2018-09-17T13:22:40.162Z,99.99
2018-09-17T13:23:39.943Z,99.99
2018-09-17T13:24:39.441Z,99.99
2018-09-17T13:25:39.215Z,99.99
2018-09-17T13:26:39.235Z,99.99
2018-09-17T13:27:39.244Z,99.99
2018-09-17T13:28:40.271Z,99.99
2018-09-17T13:29:39.293Z,99.99
2018-09-17T13:30:39.300Z,99.99
2018-09-17T13:31:39.408Z,99.99
2018-09-17T13:32:39.367Z,99.99
2018-09-17T13:33:39.360Z,99.99
2018-09-17T13:34:40.393Z,99.99
2018-09-17T13:35:39.435Z,99.99
2018-09-17T13:36:39.439Z,99.99
2018-09-17T13:37:39.446Z,99.99
2018-09-17T13:38:39.461Z,99.99
2018-09-17T13:39:40.454Z,99.99
2018-09-17T13:40:40.536Z,99.99
2018-09-17T13:41:39.552Z,99.99
2018-09-17T13:42:39.626Z,99.99
2018-09-17T13:43:39.569Z,99.99
2018-09-17T13:44:39.687Z,99.99
2018-09-17T13:45:39.604Z,99.99
2018-09-17T13:46:40.635Z,99.99
2018-09-17T13:47:39.652Z,99.99
2018-09-17T13:48:39.690Z,99.99
2018-09-17T13:49:39.717Z,99.99
2018-09-17T13:50:40.474Z,99.99
2018-09-17T13:51:39.762Z,99.99
2018-09-17T13:52:40.816Z,99.99
2018-09-17T13:53:39.825Z,99.99
2018-09-17T13:54:39.795Z,99.99
2018-09-17T13:55:39.839Z,99.99
2018-09-17T13:56:39.837Z,99.99
2018-09-17T13:57:39.886Z,99.99
2018-09-17T13:58:40.894Z,99.99
2018-09-17T13:59:39.874Z,99.99
2018-09-17T14:00:39.917Z,99.99
2018-09-17T14:01:40.034Z,99.99
2018-09-17T14:02:39.942Z,99.99
2018-09-17T14:03:39.992Z,99.99
2018-09-17T14:04:41.026Z,99.99
2018-09-17T14:05:40.035Z,99.99
2018-09-17T14:06:40.037Z,99.99
2018-09-17T14:07:40.072Z,99.99
2018-09-17T14:08:40.087Z,99.99
2018-09-17T14:09:40.103Z,99.99
2018-09-17T14:10:41.117Z,99.99
2018-09-17T14:11:40.171Z,99.99
2018-09-17T14:13:42.461Z,99.99
2018-09-17T14:14:42.775Z,99.99
2018-09-17T14:15:42.830Z,99.99
2018-09-17T14:16:45.282Z,99.99
2018-09-17T14:17:42.907Z,99.99
2018-09-17T14:18:43.761Z,99.99
2018-09-17T14:19:42.845Z,99.99
2018-09-17T14:20:42.603Z,99.99
2018-09-17T14:21:43.645Z,99.99
2018-09-17T14:22:43.005Z,99.99
2018-09-17T14:23:43.887Z,99.99
2018-09-17T14:24:42.600Z,99.99
2018-09-17T14:25:44.521Z,99.99
2018-09-17T14:26:43.828Z,99.99
2018-09-17T14:27:44.522Z,99.99
2018-09-17T14:28:44.041Z,99.99
2018-09-17T14:29:42.953Z,99.99
2018-09-17T14:30:42.580Z,99.99
2018-09-17T14:31:43.946Z,99.99
2018-09-17T14:32:43.061Z,99.99
2018-09-17T14:33:43.844Z,99.99
2018-09-17T14:34:43.265Z,99.99
2018-09-17T14:35:46.572Z,99.99
2018-09-17T14:36:43.886Z,99.99
2018-09-17T14:37:44.767Z,99.99
2018-09-17T14:38:44.081Z,99.99
2018-09-17T14:39:43.006Z,99.99
2018-09-17T14:40:43.839Z,99.99
2018-09-17T14:41:44.145Z,99.99
2018-09-17T14:42:42.899Z,99.99
2018-09-17T14:43:44.034Z,99.99
2018-09-17T14:44:46.784Z,99.99
2018-09-17T14:45:43.261Z,99.99
2018-09-17T14:46:44.148Z,99.99
2018-09-17T14:47:46.299Z,99.99
2018-09-17T14:48:44.197Z,99.99
2018-09-17T14:49:43.280Z,99.99